TAF and METAR

METAR for Sleipner Oil Platform

ENSL 030350Z AUTO 02023KT 8000NDV -SHRA OVC006/// 11/10 Q1012 W10/S4
Report created 3. jun 05:50
report generated by an automatic observation system. wind 23 knots from NNE (020°) visibility 8000 meters light rain showers overcast at 600 feet Temperature 11° with dewpoint at 10° (Humidity 93.55%) Pressure 1012 hPa
No TAF available for Sleipner Oil Platform
Sleipner Oil Platform in Norway at 50m

Latest 5 airports